createdAt,value
2023-03-02T00:00:59.576Z,99.90
2023-03-02T00:03:28.950Z,99.90
2023-03-02T00:05:57.514Z,99.90
2023-03-02T00:08:27.764Z,99.90
2023-03-02T00:10:57.122Z,99.90
2023-03-02T00:13:25.474Z,99.90
2023-03-02T00:15:53.595Z,99.90
2023-03-02T00:18:21.726Z,99.90
2023-03-02T00:20:50.054Z,99.90
2023-03-02T00:23:18.140Z,99.90
2023-03-02T00:25:48.145Z,99.90
2023-03-02T00:28:16.414Z,99.90
2023-03-02T00:30:44.689Z,99.90
2023-03-02T00:33:12.841Z,99.90
2023-03-02T00:35:41.867Z,99.90
2023-03-02T00:38:10.041Z,99.90
2023-03-02T00:40:38.303Z,99.90
2023-03-02T00:43:08.154Z,99.90
2023-03-02T00:45:36.226Z,99.90
2023-03-02T00:48:04.612Z,99.90
2023-03-02T00:50:32.730Z,99.90
2023-03-02T00:53:01.648Z,99.90
2023-03-02T00:55:29.826Z,99.90
2023-03-02T00:57:58.334Z,99.90
2023-03-02T01:00:31.988Z,99.90
2023-03-02T01:03:04.970Z,99.90
2023-03-02T01:05:36.690Z,99.90
2023-03-02T01:08:05.574Z,99.90
2023-03-02T01:10:33.960Z,99.90
2023-03-02T01:13:02.193Z,99.90
2023-03-02T01:15:33.008Z,99.90
2023-03-02T01:18:01.167Z,99.90
2023-03-02T01:20:29.862Z,99.90
2023-03-02T01:22:58.007Z,99.90
2023-03-02T01:25:26.640Z,99.90
2023-03-02T01:27:54.931Z,99.90
2023-03-02T01:30:23.601Z,99.90
2023-03-02T01:32:52.999Z,99.90
2023-03-02T01:35:21.646Z,99.90
2023-03-02T01:37:49.757Z,99.90
2023-03-02T01:40:18.384Z,99.90
2023-03-02T01:42:48.173Z,99.90
2023-03-02T01:45:35.654Z,99.90
2023-03-02T01:48:05.358Z,99.90
2023-03-02T01:50:33.910Z,99.90
2023-03-02T01:53:04.069Z,99.90
2023-03-02T01:55:34.069Z,99.90
2023-03-02T01:58:04.190Z,99.90
2023-03-02T02:00:34.092Z,99.90
2023-03-02T02:03:11.328Z,99.90
2023-03-02T02:05:41.879Z,99.90
2023-03-02T02:08:10.646Z,99.90
2023-03-02T02:10:40.809Z,99.90
2023-03-02T02:13:11.012Z,99.90
2023-03-02T02:15:39.868Z,99.90
2023-03-02T02:18:08.300Z,99.90
2023-03-02T02:20:38.188Z,99.90
2023-03-02T02:23:22.653Z,99.90
2023-03-02T02:25:59.378Z,99.90
2023-03-02T02:28:30.197Z,99.90
2023-03-02T02:31:00.898Z,99.90
2023-03-02T02:33:29.421Z,99.90
2023-03-02T02:36:11.242Z,99.90
2023-03-02T02:38:41.361Z,99.90
2023-03-02T02:41:14.965Z,99.90
2023-03-02T02:43:43.307Z,99.90
2023-03-02T02:46:12.246Z,99.90
2023-03-02T02:48:41.198Z,99.90
2023-03-02T02:51:09.893Z,99.90
2023-03-02T02:53:42.731Z,99.90
2023-03-02T02:56:13.472Z,99.90
2023-03-02T02:58:45.252Z,99.90
2023-03-02T03:01:14.479Z,99.90
2023-03-02T03:03:45.260Z,99.90
2023-03-02T03:06:17.802Z,99.90
2023-03-02T03:08:54.377Z,99.90
2023-03-02T03:11:30.292Z,99.90
2023-03-02T03:14:01.745Z,99.90
2023-03-02T03:16:31.701Z,99.90
2023-03-02T03:19:03.076Z,99.90
2023-03-02T03:21:31.256Z,99.90
2023-03-02T03:24:00.201Z,99.90
2023-03-02T03:26:30.824Z,99.90
2023-03-02T03:28:59.448Z,99.90
2023-03-02T03:31:28.660Z,99.90
2023-03-02T03:34:00.500Z,99.90
2023-03-02T03:36:33.342Z,99.90
2023-03-02T03:39:02.356Z,99.90
2023-03-02T03:41:32.922Z,99.90
2023-03-02T03:44:01.115Z,99.90
2023-03-02T03:46:32.580Z,99.90
2023-03-02T03:49:00.920Z,99.90
2023-03-02T03:51:30.013Z,99.90
2023-03-02T03:54:00.848Z,99.90
2023-03-02T03:56:37.635Z,99.90
2023-03-02T03:59:08.860Z,99.90
2023-03-02T04:01:46.735Z,99.90
2023-03-02T04:04:16.487Z,99.90
2023-03-02T04:06:45.247Z,99.90
2023-03-02T04:09:15.411Z,99.90
2023-03-02T04:11:46.278Z,99.90
2023-03-02T04:14:15.820Z,99.90
2023-03-02T04:16:45.159Z,99.90
2023-03-02T04:19:13.915Z,99.90
2023-03-02T04:21:45.185Z,99.90
2023-03-02T04:24:14.609Z,99.90
2023-03-02T04:26:46.349Z,99.90
2023-03-02T04:29:15.768Z,99.90
2023-03-02T04:31:44.246Z,99.90
2023-03-02T04:34:13.902Z,99.90
2023-03-02T04:36:45.540Z,99.90
2023-03-02T04:39:16.976Z,99.90
2023-03-02T04:41:50.447Z,99.90
2023-03-02T04:44:19.923Z,99.90
2023-03-02T04:46:48.601Z,99.90
2023-03-02T04:49:17.660Z,99.90
2023-03-02T04:51:47.328Z,99.90
2023-03-02T04:54:17.590Z,99.90
2023-03-02T04:56:48.384Z,99.90
2023-03-02T04:59:18.781Z,99.90
2023-03-02T05:01:46.936Z,99.90
2023-03-02T05:04:15.849Z,99.90
2023-03-02T05:06:44.234Z,99.90
2023-03-02T05:09:12.738Z,99.90
2023-03-02T05:11:41.815Z,99.90
2023-03-02T05:14:11.870Z,99.90
2023-03-02T05:16:42.445Z,99.90
2023-03-02T05:19:11.537Z,99.90
2023-03-02T05:21:40.273Z,99.90
2023-03-02T05:24:08.477Z,99.90
2023-03-02T05:26:37.748Z,99.90
2023-03-02T05:29:06.095Z,99.90
2023-03-02T05:31:35.981Z,99.90
2023-03-02T05:34:07.171Z,99.90
2023-03-02T05:36:36.269Z,99.90
2023-03-02T05:39:04.967Z,99.90
2023-03-02T05:41:34.011Z,99.90
2023-03-02T05:44:02.667Z,99.90
2023-03-02T05:46:31.271Z,99.90
2023-03-02T05:48:59.767Z,99.90
2023-03-02T05:51:29.438Z,99.90
2023-03-02T05:53:58.026Z,99.90
2023-03-02T05:56:26.315Z,99.90
2023-03-02T05:58:54.909Z,99.90
2023-03-02T06:01:22.987Z,99.90
2023-03-02T06:03:51.713Z,99.90
2023-03-02T06:06:19.852Z,99.90
2023-03-02T06:08:49.278Z,99.90
2023-03-02T06:11:17.425Z,99.90
2023-03-02T06:13:46.168Z,99.90
2023-03-02T06:16:14.331Z,99.90
2023-03-02T06:18:42.656Z,99.90
2023-03-02T06:21:10.737Z,99.90
2023-03-02T06:23:39.634Z,99.90
2023-03-02T06:26:10.938Z,99.90
2023-03-02T06:28:51.628Z,99.90
2023-03-02T06:31:21.351Z,99.90
2023-03-02T06:33:49.461Z,99.90
2023-03-02T06:36:18.419Z,99.90
2023-03-02T06:38:46.549Z,99.90
2023-03-02T06:41:16.743Z,99.90
2023-03-02T06:43:44.860Z,99.90
2023-03-02T06:46:13.121Z,99.90
2023-03-02T06:48:41.259Z,99.90
2023-03-02T06:51:09.509Z,99.90
2023-03-02T06:53:37.715Z,99.90
2023-03-02T06:56:06.555Z,99.90
2023-03-02T06:58:36.136Z,99.90
2023-03-02T07:01:04.563Z,99.90
2023-03-02T07:03:32.805Z,99.90
2023-03-02T07:06:01.068Z,99.90
2023-03-02T07:08:29.252Z,99.90
2023-03-02T07:10:57.410Z,99.90
2023-03-02T07:13:25.588Z,99.90
2023-03-02T07:15:55.582Z,99.90
2023-03-02T07:18:23.833Z,99.90
2023-03-02T07:20:52.249Z,99.90
2023-03-02T07:23:20.359Z,99.90
2023-03-02T07:25:48.446Z,99.90
2023-03-02T07:28:16.700Z,99.90
2023-03-02T07:30:44.956Z,99.90
2023-03-02T07:33:21.058Z,99.90
2023-03-02T07:35:49.588Z,99.90
2023-03-02T07:38:17.737Z,99.90
2023-03-02T07:40:45.914Z,99.90
2023-03-02T07:43:14.083Z,99.90
2023-03-02T07:45:42.301Z,99.90
2023-03-02T07:48:10.301Z,99.90
2023-03-02T07:50:39.774Z,99.90
2023-03-02T07:53:07.885Z,99.90
2023-03-02T07:55:36.227Z,99.90
2023-03-02T07:58:04.372Z,99.90
2023-03-02T08:00:32.448Z,99.90
2023-03-02T08:03:00.650Z,99.90
2023-03-02T08:05:28.787Z,99.90
2023-03-02T08:07:58.222Z,99.90
2023-03-02T08:10:26.304Z,99.90
2023-03-02T08:12:54.391Z,99.90
2023-03-02T08:15:23.433Z,99.90
2023-03-02T08:17:51.540Z,99.90
2023-03-02T08:20:20.811Z,99.90
2023-03-02T08:22:49.263Z,99.90
2023-03-02T08:25:19.059Z,99.90
2023-03-02T08:27:47.333Z,99.90
2023-03-02T08:30:15.665Z,99.90
2023-03-02T08:32:43.853Z,99.90
2023-03-02T08:35:12.843Z,99.90
2023-03-02T08:37:41.042Z,99.90
2023-03-02T08:40:09.802Z,99.90
2023-03-02T08:42:39.196Z,99.90
2023-03-02T08:45:07.941Z,99.90
2023-03-02T08:47:36.056Z,99.90
2023-03-02T08:50:04.285Z,99.90
2023-03-02T08:52:33.711Z,99.90
2023-03-02T08:55:03.744Z,99.90
2023-03-02T08:57:32.213Z,99.90
2023-03-02T09:00:01.640Z,99.90
2023-03-02T09:02:30.098Z,99.90
2023-03-02T09:04:58.817Z,99.90
2023-03-02T09:07:26.961Z,99.90
2023-03-02T09:09:55.062Z,99.90
2023-03-02T09:12:23.133Z,99.90
2023-03-02T09:14:51.172Z,99.90
2023-03-02T09:17:20.616Z,99.90
2023-03-02T09:19:49.140Z,99.90
2023-03-02T09:22:17.507Z,99.90
2023-03-02T09:24:45.548Z,99.90
2023-03-02T09:27:13.684Z,99.90
2023-03-02T09:29:41.879Z,99.90
2023-03-02T09:32:10.029Z,99.90
2023-03-02T09:34:39.580Z,99.90
2023-03-02T09:37:07.658Z,99.90
2023-03-02T09:39:35.717Z,99.90
2023-03-02T09:42:22.046Z,99.90
2023-03-02T09:45:08.666Z,99.90
2023-03-02T09:47:38.741Z,99.90
2023-03-02T09:50:12.348Z,99.90
2023-03-02T09:52:41.761Z,99.90
2023-03-02T09:55:13.364Z,99.90
2023-03-02T09:57:42.112Z,99.90
2023-03-02T10:00:19.573Z,99.90
2023-03-02T10:02:51.301Z,99.90
2023-03-02T10:05:22.533Z,99.90
2023-03-02T10:07:50.755Z,99.90
2023-03-02T10:10:27.694Z,99.70
2023-03-02T10:13:01.412Z,99.50
2023-03-02T10:15:32.540Z,99.60
2023-03-02T10:18:02.121Z,99.30
2023-03-02T10:20:35.598Z,98.20
2023-03-02T10:23:18.427Z,96.40
2023-03-02T10:25:49.427Z,96.80
2023-03-02T10:28:20.188Z,96.90
2023-03-02T10:30:53.044Z,95.70
2023-03-02T10:33:22.722Z,93.90
2023-03-02T10:35:54.088Z,92.30
2023-03-02T10:38:23.410Z,89.80
2023-03-02T10:40:56.905Z,81.70
2023-03-02T10:43:28.970Z,72.60
2023-03-02T10:46:01.541Z,66.90
2023-03-02T10:48:30.021Z,62.80
2023-03-02T10:51:00.418Z,60.00
2023-03-02T10:53:29.701Z,58.60
2023-03-02T10:55:58.032Z,57.50
2023-03-02T10:58:27.400Z,56.00
2023-03-02T11:00:59.261Z,54.80
2023-03-02T11:03:28.094Z,55.00
2023-03-02T11:05:56.231Z,54.80
2023-03-02T11:08:26.906Z,52.60
2023-03-02T11:10:59.870Z,53.20
2023-03-02T11:13:31.677Z,53.50
2023-03-02T11:16:00.806Z,53.80
2023-03-02T11:18:32.310Z,52.80
2023-03-02T11:21:02.167Z,52.30
2023-03-02T11:23:36.615Z,52.70
2023-03-02T11:26:08.070Z,53.00
2023-03-02T11:28:45.524Z,52.30
2023-03-02T11:31:18.563Z,53.40
2023-03-02T11:33:52.974Z,52.10
2023-03-02T11:36:24.305Z,52.80
2023-03-02T11:38:55.048Z,52.00
2023-03-02T11:41:29.768Z,52.60
2023-03-02T11:44:00.833Z,53.70
2023-03-02T11:46:30.763Z,53.90
2023-03-02T11:49:00.814Z,53.50
2023-03-02T11:51:30.527Z,53.20
2023-03-02T11:54:02.679Z,52.80
2023-03-02T11:56:32.816Z,53.00
2023-03-02T11:59:01.817Z,52.90
2023-03-02T12:01:30.805Z,53.20
2023-03-02T12:04:08.056Z,54.80
2023-03-02T12:06:38.555Z,56.20
2023-03-02T12:09:24.620Z,56.40
2023-03-02T12:11:57.647Z,56.60
2023-03-02T12:14:27.625Z,56.20
2023-03-02T12:17:05.465Z,55.30
2023-03-02T12:19:48.869Z,54.90
2023-03-02T12:22:27.261Z,55.30
2023-03-02T12:25:01.214Z,54.30
2023-03-02T12:27:35.400Z,53.60
2023-03-02T12:30:12.280Z,54.30
2023-03-02T12:32:41.019Z,54.40
2023-03-02T12:35:12.112Z,53.00
2023-03-02T12:37:46.182Z,54.60
2023-03-02T12:40:24.166Z,55.40
2023-03-02T12:43:07.489Z,57.40
2023-03-02T12:45:42.563Z,55.60
2023-03-02T12:48:21.357Z,54.00
2023-03-02T12:50:49.715Z,53.20
2023-03-02T12:53:19.443Z,54.40
2023-03-02T12:55:47.938Z,52.50
2023-03-02T12:58:23.094Z,49.80
2023-03-02T13:00:52.339Z,48.80
2023-03-02T13:03:21.084Z,47.70
2023-03-02T13:05:49.282Z,47.30
2023-03-02T13:08:21.146Z,47.10
2023-03-02T13:10:50.594Z,46.50
2023-03-02T13:13:21.420Z,46.90
2023-03-02T13:15:53.242Z,43.60
2023-03-02T13:18:22.336Z,41.50
2023-03-02T13:20:51.094Z,38.00
2023-03-02T13:23:20.000Z,37.10
2023-03-02T13:25:49.316Z,37.10
2023-03-02T13:28:27.445Z,39.70
2023-03-02T13:31:00.046Z,42.00
2023-03-02T13:33:29.118Z,39.00
2023-03-02T13:35:57.564Z,37.10
2023-03-02T13:38:26.890Z,35.50
2023-03-02T13:40:56.257Z,34.20
2023-03-02T13:43:34.972Z,32.70
2023-03-02T13:46:04.538Z,31.10
2023-03-02T13:48:32.864Z,29.20
2023-03-02T13:51:03.045Z,29.00
2023-03-02T13:53:34.661Z,28.50
2023-03-02T13:56:05.076Z,27.80
2023-03-02T13:58:38.177Z,28.20
2023-03-02T14:01:07.340Z,28.60
2023-03-02T14:03:35.490Z,28.20
2023-03-02T14:06:06.129Z,27.80
2023-03-02T14:08:34.276Z,27.60
2023-03-02T14:11:04.312Z,27.00
2023-03-02T14:13:37.060Z,26.90
2023-03-02T14:16:06.507Z,27.00
2023-03-02T14:18:38.870Z,26.40
2023-03-02T14:21:07.731Z,26.20
2023-03-02T14:23:35.834Z,26.50
2023-03-02T14:26:07.846Z,26.70
2023-03-02T14:28:37.282Z,26.70
2023-03-02T14:31:06.169Z,27.00
2023-03-02T14:33:35.609Z,27.30
2023-03-02T14:36:04.310Z,27.10
2023-03-02T14:38:36.805Z,27.70
2023-03-02T14:41:06.018Z,27.90
2023-03-02T14:43:39.321Z,28.60
2023-03-02T14:46:09.757Z,30.90
2023-03-02T14:48:40.028Z,34.40
2023-03-02T14:51:15.758Z,39.70
2023-03-02T14:53:45.133Z,46.20
2023-03-02T14:56:13.604Z,50.30
2023-03-02T14:58:42.289Z,52.50
2023-03-02T15:01:12.871Z,53.50
2023-03-02T15:03:41.590Z,54.10
2023-03-02T15:06:17.997Z,54.90
2023-03-02T15:08:46.129Z,56.20
2023-03-02T15:11:14.204Z,57.60
2023-03-02T15:13:43.745Z,58.80
2023-03-02T15:16:16.683Z,59.70
2023-03-02T15:18:44.882Z,61.00
2023-03-02T15:21:20.632Z,62.30
2023-03-02T15:23:48.834Z,65.00
2023-03-02T15:26:16.981Z,64.80
2023-03-02T15:28:45.735Z,65.50
2023-03-02T15:31:15.212Z,66.30
2023-03-02T15:33:46.433Z,68.10
2023-03-02T15:36:15.018Z,68.50
2023-03-02T15:38:43.287Z,69.10
2023-03-02T15:41:12.836Z,70.40
2023-03-02T15:43:41.210Z,70.80
2023-03-02T15:46:11.285Z,71.20
2023-03-02T15:48:45.511Z,72.00
2023-03-02T15:51:13.883Z,72.90
2023-03-02T15:53:42.007Z,73.70
2023-03-02T15:56:11.180Z,74.20
2023-03-02T15:58:39.332Z,75.40
2023-03-02T16:01:08.125Z,75.90
2023-03-02T16:03:36.338Z,76.50
2023-03-02T16:06:07.209Z,77.00
2023-03-02T16:08:35.399Z,78.80
2023-03-02T16:11:05.374Z,79.30
2023-03-02T16:13:33.528Z,79.80
2023-03-02T16:16:02.355Z,80.30
2023-03-02T16:18:30.506Z,82.10
2023-03-02T16:20:58.857Z,82.30
2023-03-02T16:23:28.297Z,84.00
2023-03-02T16:26:06.640Z,84.80
2023-03-02T16:28:34.750Z,86.20
2023-03-02T16:31:06.562Z,87.60
2023-03-02T16:33:34.934Z,89.00
2023-03-02T16:36:03.004Z,90.60
2023-03-02T16:38:32.462Z,91.40
2023-03-02T16:41:02.117Z,91.20
2023-03-02T16:43:30.274Z,92.10
2023-03-02T16:45:58.941Z,93.70
2023-03-02T16:48:27.116Z,95.10
2023-03-02T16:50:55.536Z,95.20
2023-03-02T16:53:23.870Z,96.00
2023-03-02T16:55:53.297Z,97.20
2023-03-02T16:58:21.745Z,98.30
2023-03-02T17:00:50.163Z,99.80
2023-03-02T17:03:19.271Z,99.90
2023-03-02T17:05:47.478Z,99.90
2023-03-02T17:08:16.765Z,99.90
2023-03-02T17:10:45.189Z,99.90
2023-03-02T17:13:17.142Z,99.90
2023-03-02T17:15:45.451Z,99.90
2023-03-02T17:18:13.727Z,99.90
2023-03-02T17:20:41.963Z,99.90
2023-03-02T17:23:14.245Z,99.90
2023-03-02T17:25:42.530Z,99.90
2023-03-02T17:28:12.533Z,99.90
2023-03-02T17:30:42.488Z,99.90
2023-03-02T17:33:11.104Z,99.90
2023-03-02T17:35:39.356Z,99.90
2023-03-02T17:38:07.710Z,99.90
2023-03-02T17:40:37.721Z,99.90
2023-03-02T17:43:05.903Z,99.90
2023-03-02T17:45:33.915Z,99.90
2023-03-02T17:48:03.484Z,99.90
2023-03-02T17:50:32.463Z,99.90
2023-03-02T17:53:00.629Z,99.90
2023-03-02T17:55:28.739Z,99.90
2023-03-02T17:57:56.790Z,99.90
2023-03-02T18:00:25.332Z,99.90
2023-03-02T18:02:54.091Z,99.90
2023-03-02T18:05:24.176Z,99.90
2023-03-02T18:07:54.447Z,99.90
2023-03-02T18:10:22.544Z,99.90
2023-03-02T18:12:53.423Z,99.90
2023-03-02T18:15:22.505Z,99.90
2023-03-02T18:17:50.558Z,99.90
2023-03-02T18:20:18.854Z,99.90
2023-03-02T18:22:48.321Z,99.90
2023-03-02T18:25:16.457Z,99.90
2023-03-02T18:27:44.637Z,99.90
2023-03-02T18:30:13.255Z,99.90
2023-03-02T18:32:41.337Z,99.90
2023-03-02T18:35:10.073Z,99.90
2023-03-02T18:37:38.338Z,99.90
2023-03-02T18:40:09.293Z,99.90
2023-03-02T18:42:37.388Z,99.90
2023-03-02T18:45:06.060Z,99.90
2023-03-02T18:47:36.510Z,99.90
2023-03-02T18:50:05.820Z,99.90
2023-03-02T18:52:34.072Z,99.90
2023-03-02T18:55:02.125Z,99.90
2023-03-02T18:57:33.902Z,99.90
2023-03-02T19:00:01.991Z,99.90
2023-03-02T19:02:31.956Z,99.90
2023-03-02T19:05:01.299Z,99.90
2023-03-02T19:07:32.425Z,99.90
2023-03-02T19:10:00.593Z,99.90
2023-03-02T19:12:28.654Z,99.90
2023-03-02T19:14:59.280Z,99.90
2023-03-02T19:17:27.408Z,99.90
2023-03-02T19:19:55.460Z,99.90
2023-03-02T19:22:23.542Z,99.90
2023-03-02T19:24:51.790Z,99.90
2023-03-02T19:27:19.895Z,99.90
2023-03-02T19:29:47.952Z,99.90
2023-03-02T19:32:17.469Z,99.90
2023-03-02T19:34:45.504Z,99.90
2023-03-02T19:37:13.663Z,99.90
2023-03-02T19:39:42.281Z,99.90
2023-03-02T19:42:10.500Z,99.90
2023-03-02T19:44:39.947Z,99.90
2023-03-02T19:47:12.534Z,99.90
2023-03-02T19:49:41.968Z,99.90
2023-03-02T19:52:11.376Z,99.90
2023-03-02T19:54:39.379Z,99.90
2023-03-02T19:57:08.355Z,99.90
2023-03-02T19:59:39.711Z,99.90
2023-03-02T20:02:09.206Z,99.90
2023-03-02T20:04:37.328Z,99.90
2023-03-02T20:07:07.113Z,99.90
2023-03-02T20:09:35.162Z,99.90
2023-03-02T20:12:06.225Z,99.90
2023-03-02T20:14:35.927Z,99.90
2023-03-02T20:17:04.942Z,99.90
2023-03-02T20:19:33.505Z,99.90
2023-03-02T20:22:03.951Z,99.90
2023-03-02T20:24:33.359Z,99.90
2023-03-02T20:27:01.872Z,99.90
2023-03-02T20:29:30.922Z,99.90
2023-03-02T20:31:59.161Z,99.90
2023-03-02T20:34:27.999Z,99.90
2023-03-02T20:36:56.063Z,99.90
2023-03-02T20:39:26.727Z,99.90
2023-03-02T20:41:56.204Z,99.90
2023-03-02T20:44:26.357Z,99.90
2023-03-02T20:46:56.151Z,99.90
2023-03-02T20:49:25.709Z,99.90
2023-03-02T20:51:54.819Z,99.90
2023-03-02T20:54:24.311Z,99.90
2023-03-02T20:56:52.811Z,99.90
2023-03-02T20:59:23.342Z,99.90
2023-03-02T21:01:51.861Z,99.90
2023-03-02T21:04:20.634Z,99.90
2023-03-02T21:06:49.197Z,99.90
2023-03-02T21:09:17.966Z,99.90
2023-03-02T21:11:46.454Z,99.90
2023-03-02T21:14:15.040Z,99.90
2023-03-02T21:16:45.544Z,99.90
2023-03-02T21:19:15.203Z,99.90
2023-03-02T21:21:43.760Z,99.90
2023-03-02T21:24:12.546Z,99.90
2023-03-02T21:26:44.490Z,99.90
2023-03-02T21:29:13.558Z,99.90
2023-03-02T21:31:44.005Z,99.90
2023-03-02T21:34:13.765Z,99.90
2023-03-02T21:36:42.754Z,99.90
2023-03-02T21:39:11.838Z,99.90
2023-03-02T21:41:40.642Z,99.90
2023-03-02T21:44:08.977Z,99.90
2023-03-02T21:46:38.320Z,99.90
2023-03-02T21:49:07.060Z,99.90
2023-03-02T21:51:37.242Z,99.90
2023-03-02T21:54:05.448Z,99.90
2023-03-02T21:56:33.810Z,99.90
2023-03-02T21:59:02.523Z,99.90
2023-03-02T22:01:32.814Z,99.90
2023-03-02T22:04:02.210Z,99.90
2023-03-02T22:06:31.180Z,99.90
2023-03-02T22:09:01.822Z,99.90
2023-03-02T22:11:31.907Z,99.90
2023-03-02T22:14:01.748Z,99.90
2023-03-02T22:16:34.005Z,99.90
2023-03-02T22:19:03.241Z,99.90
2023-03-02T22:21:33.373Z,99.90
2023-03-02T22:24:12.718Z,99.90
2023-03-02T22:26:41.790Z,99.90
2023-03-02T22:29:14.472Z,99.90
2023-03-02T22:31:45.818Z,99.90
2023-03-02T22:34:15.557Z,99.90
2023-03-02T22:36:43.824Z,99.90
2023-03-02T22:39:19.692Z,99.90
2023-03-02T22:41:47.908Z,99.90
2023-03-02T22:44:16.478Z,99.90
2023-03-02T22:46:44.748Z,99.90
2023-03-02T22:49:16.135Z,99.90
2023-03-02T22:51:45.044Z,99.90
2023-03-02T22:54:21.327Z,99.90
2023-03-02T22:56:50.380Z,99.90
2023-03-02T22:59:21.773Z,99.90
2023-03-02T23:01:49.946Z,99.90
2023-03-02T23:04:19.531Z,99.90
2023-03-02T23:06:48.664Z,99.90
2023-03-02T23:09:20.849Z,99.90
2023-03-02T23:11:49.864Z,99.90
2023-03-02T23:14:25.366Z,99.90
2023-03-02T23:16:56.458Z,99.90
2023-03-02T23:19:25.674Z,99.90
2023-03-02T23:21:54.424Z,99.90
2023-03-02T23:24:23.872Z,99.90
2023-03-02T23:26:53.588Z,99.90
2023-03-02T23:29:22.204Z,99.90
2023-03-02T23:31:51.197Z,99.90
2023-03-02T23:34:19.455Z,99.90
2023-03-02T23:36:48.198Z,99.90
2023-03-02T23:39:17.580Z,99.90
2023-03-02T23:41:47.882Z,99.90
2023-03-02T23:44:16.087Z,99.90
2023-03-02T23:46:44.966Z,99.90
2023-03-02T23:49:13.043Z,99.90
2023-03-02T23:51:41.849Z,99.90
2023-03-02T23:54:10.070Z,99.90
2023-03-02T23:56:38.404Z,99.90
2023-03-02T23:59:08.192Z,99.90
